Time;durP1;ratioP1;P1;durP2;ratioP2;P2;SDS_P1;SDS_P2;PMS_P1;PMS_P2;Temp;Humidity;BMP_temperature;BMP_pressure;BME280_temperature;BME280_humidity;BME280_pressure;Samples;Min_cycle;Max_cycle;Signal;HPM_P1;HPM_P2
2021/12/01 00:01:40;;;;;;;;;;;;;;;2.27;51.42;99519.50;5028518;28;19917;-83
2021/12/01 00:04:05;;;;;;;;;;;;;;;2.19;51.69;99519.38;5029275;28;20019;-83
2021/12/01 00:06:30;;;;;;;;;;;;;;;2.37;51.53;99531.81;5028067;28;20749;-84
2021/12/01 00:08:56;;;;;;;;;;;;;;;2.31;52.22;99529.13;5029525;28;20657;-84
2021/12/01 00:11:21;;;;;;;;;;;;;;;2.02;52.65;99539.03;5043552;28;20658;-84
2021/12/01 00:13:47;;;;;;;;;;;;;;;2.18;52.26;99533.25;5049082;28;20299;-84
2021/12/01 00:16:12;;;;;;;;;;;;;;;2.22;52.79;99529.84;5032229;28;19944;-83
2021/12/01 00:18:37;;;;;;;;;;;;;;;2.40;52.29;99523.19;5036212;28;19924;-84
2021/12/01 00:21:03;;;;;;;;;;;;;;;2.40;52.49;99518.84;5028126;28;19919;-84
2021/12/01 00:23:28;;;;;;;;;;;;;;;2.21;52.70;99515.09;5036355;28;20321;-84
2021/12/01 00:25:54;;;;;;;;;;;;;;;2.02;53.45;99510.44;5033468;28;19921;-84
2021/12/01 00:28:19;;;;;;;;;;;;;;;1.89;53.13;99511.94;5029041;28;19979;-83
2021/12/01 00:30:45;;;;;;;;;;;;;;;1.54;53.33;99522.59;5045124;28;19960;-83
2021/12/01 00:33:14;;;;;;;;;;;;;;;1.92;52.69;99512.00;5048544;28;19913;-83
2021/12/01 00:35:40;;;;;;;;;;;;;;;1.76;52.71;99523.84;5048210;28;20077;-83
2021/12/01 00:38:05;;;;;;;;;;;;;;;1.85;53.23;99525.75;5038599;28;20003;-83
2021/12/01 00:40:31;;;;;;;;;;;;;;;1.89;52.88;99532.75;5043309;28;19944;-82
2021/12/01 00:42:57;;;;;;;;;;;;;;;1.79;53.37;99527.41;5047092;28;19917;-82
2021/12/01 00:45:23;;;;;;;;;;;;;;;1.39;53.85;99523.16;5048381;28;19916;-83
2021/12/01 00:47:51;;;;;;;;;;;;;;;1.48;54.32;99531.13;5048174;28;19999;-83
2021/12/01 00:50:23;;;;;;;;;;;;;;;1.35;54.42;99522.25;5034927;28;19927;-85
2021/12/01 00:52:48;;;;;;;;;;;;;;;1.45;54.78;99522.41;5045728;28;20104;-85
2021/12/01 00:55:14;;;;;;;;;;;;;;;1.49;55.05;99516.44;5048256;28;19923;-82
2021/12/01 00:57:39;;;;;;;;;;;;;;;1.28;55.49;99512.56;5038391;28;19923;-87
2021/12/01 01:00:06;;;;;;;;;;;;;;;1.29;55.55;99503.06;5040655;28;20504;-83
2021/12/01 01:02:32;;;;;;;;;;;;;;;1.43;55.75;99496.41;5047872;28;19912;-84
2021/12/01 01:04:57;;;;;;;;;;;;;;;1.36;55.54;99504.91;5048037;28;19935;-84
2021/12/01 01:07:22;;;;;;;;;;;;;;;1.34;55.60;99510.09;5048064;28;19927;-83
2021/12/01 01:09:48;;;;;;;;;;;;;;;1.14;56.08;99508.81;5038052;28;19917;-83
2021/12/01 01:17:42;;;;;;;;;;;;;;;1.08;55.75;99501.78;5038362;28;19927;-84
2021/12/01 01:20:11;;;;;;;;;;;;;;;1.02;55.73;99494.75;5036494;28;19929;-83
2021/12/01 01:22:37;;;;;;;;;;;;;;;1.03;56.40;99499.09;5028514;28;19924;-83
2021/12/01 01:25:04;;;;;;;;;;;;;;;1.09;56.02;99498.34;5027383;28;19921;-84
2021/12/01 01:27:29;;;;;;;;;;;;;;;1.32;55.46;99496.19;5027566;28;20016;-82
2021/12/01 01:29:54;;;;;;;;;;;;;;;1.24;55.63;99482.19;5031397;28;20404;-84
2021/12/01 01:32:19;;;;;;;;;;;;;;;1.18;55.90;99480.34;5048112;28;19923;-82
2021/12/01 01:34:45;;;;;;;;;;;;;;;0.85;56.65;99470.13;5029075;28;19917;-83
2021/12/01 01:37:10;;;;;;;;;;;;;;;0.67;57.33;99465.47;5035094;28;19924;-83
2021/12/01 01:39:35;;;;;;;;;;;;;;;0.34;58.65;99454.38;5046442;28;20011;-82
2021/12/01 01:42:01;;;;;;;;;;;;;;;0.40;58.86;99448.44;5047396;28;19916;-83
2021/12/01 01:44:26;;;;;;;;;;;;;;;0.31;59.53;99443.94;5034531;28;19925;-83
2021/12/01 01:46:52;;;;;;;;;;;;;;;0.56;58.58;99436.66;5027500;28;19924;-85
2021/12/01 01:49:18;;;;;;;;;;;;;;;0.72;58.55;99417.09;5028394;28;19943;-84
2021/12/01 01:51:45;;;;;;;;;;;;;;;0.74;58.44;99417.97;5046674;28;19917;-85
2021/12/01 01:54:11;;;;;;;;;;;;;;;0.40;58.89;99419.88;5028206;28;20446;-84
2021/12/01 01:56:36;;;;;;;;;;;;;;;0.50;58.45;99419.25;5032311;28;19928;-88
2021/12/01 01:59:03;;;;;;;;;;;;;;;-0.04;60.10;99425.84;5043550;28;20432;-83
2021/12/01 02:01:54;;;;;;;;;;;;;;;0.12;59.50;99418.41;5057037;28;20361;-83
2021/12/01 02:04:19;;;;;;;;;;;;;;;0.10;59.83;99427.88;5035711;28;19935;-85
2021/12/01 02:06:48;;;;;;;;;;;;;;;0.35;58.56;99421.50;5047647;28;20687;-86
2021/12/01 02:09:15;;;;;;;;;;;;;;;0.57;56.90;99422.81;5048979;28;20390;-82
2021/12/01 02:11:40;;;;;;;;;;;;;;;0.77;57.29;99419.78;5048552;28;19931;-84
2021/12/01 02:14:06;;;;;;;;;;;;;;;0.62;56.87;99423.81;5051162;28;19917;-83
2021/12/01 02:16:31;;;;;;;;;;;;;;;0.82;56.86;99413.84;5043862;28;19931;-84
2021/12/01 02:18:56;;;;;;;;;;;;;;;0.87;56.63;99407.00;5031238;28;19914;-83
2021/12/01 02:21:29;;;;;;;;;;;;;;;0.83;56.78;99401.72;5032333;28;19939;-83
2021/12/01 02:23:59;;;;;;;;;;;;;;;0.95;56.77;99408.88;5031111;28;19982;-82
2021/12/01 02:26:25;;;;;;;;;;;;;;;0.86;57.17;99426.03;5031276;28;19913;-83
2021/12/01 02:28:52;;;;;;;;;;;;;;;0.86;57.49;99422.56;5032950;28;19912;-83
2021/12/01 02:31:17;;;;;;;;;;;;;;;0.83;56.76;99433.75;5046777;28;19924;-83
2021/12/01 02:33:43;;;;;;;;;;;;;;;1.01;56.09;99428.06;5030780;28;20397;-83
2021/12/01 02:36:12;;;;;;;;;;;;;;;1.09;55.98;99436.00;5036807;28;19917;-84
2021/12/01 02:38:40;;;;;;;;;;;;;;;1.09;55.29;99443.78;5048578;28;19925;-84
2021/12/01 02:41:05;;;;;;;;;;;;;;;1.30;54.76;99442.41;5045003;28;20477;-84
2021/12/01 02:43:31;;;;;;;;;;;;;;;1.51;54.05;99441.94;5030842;28;19913;-83
2021/12/01 02:45:57;;;;;;;;;;;;;;;1.36;54.71;99443.44;5030605;28;19924;-82
2021/12/01 02:48:23;;;;;;;;;;;;;;;1.32;54.88;99453.75;5030831;28;19924;-82
2021/12/01 02:50:49;;;;;;;;;;;;;;;1.19;55.06;99443.13;5032927;28;19971;-85
2021/12/01 02:53:14;;;;;;;;;;;;;;;0.92;56.72;99453.84;5040194;28;19917;-81
2021/12/01 02:55:51;;;;;;;;;;;;;;;1.02;57.00;99450.59;5030651;28;19945;-82
2021/12/01 02:58:17;;;;;;;;;;;;;;;1.00;56.86;99444.47;5043825;28;20386;-83
2021/12/01 03:00:43;;;;;;;;;;;;;;;1.15;56.42;99449.09;5036800;28;20314;-84
2021/12/01 03:03:08;;;;;;;;;;;;;;;1.18;56.17;99456.09;5033852;28;19970;-84
2021/12/01 03:05:34;;;;;;;;;;;;;;;1.19;55.81;99463.00;5031507;28;20011;-84
2021/12/01 03:07:59;;;;;;;;;;;;;;;0.96;56.75;99458.25;5047333;28;19920;-82
2021/12/01 03:10:25;;;;;;;;;;;;;;;1.02;56.91;99465.28;5045806;28;20051;-82
2021/12/01 03:12:50;;;;;;;;;;;;;;;0.75;56.49;99471.69;5030198;28;19916;-82
2021/12/01 03:15:16;;;;;;;;;;;;;;;0.54;57.33;99469.50;5035338;28;19920;-81
2021/12/01 03:17:42;;;;;;;;;;;;;;;0.58;56.72;99463.53;5030044;28;20525;-83
2021/12/01 03:20:09;;;;;;;;;;;;;;;0.23;57.55;99465.34;5028599;28;20011;-82
2021/12/01 03:22:34;;;;;;;;;;;;;;;-0.15;58.96;99457.56;5050152;28;19916;-83
2021/12/01 03:24:59;;;;;;;;;;;;;;;-0.12;60.02;99445.53;5047565;28;19928;-82
2021/12/01 03:27:25;;;;;;;;;;;;;;;-0.17;59.91;99441.97;5049028;28;19920;-83
2021/12/01 03:29:50;;;;;;;;;;;;;;;-0.24;60.40;99432.28;5046941;28;19912;-86
2021/12/01 03:32:16;;;;;;;;;;;;;;;-0.14;60.55;99435.94;5029606;28;19928;-83
2021/12/01 03:34:43;;;;;;;;;;;;;;;0.29;59.08;99442.13;5046718;28;20001;-83
2021/12/01 03:37:08;;;;;;;;;;;;;;;0.40;58.17;99445.81;5048528;28;20306;-84
2021/12/01 03:39:34;;;;;;;;;;;;;;;0.76;57.26;99457.88;5049264;28;19946;-83
2021/12/01 03:41:59;;;;;;;;;;;;;;;0.79;58.16;99457.03;5049719;28;19912;-84
2021/12/01 03:44:25;;;;;;;;;;;;;;;0.73;57.70;99460.41;5034818;28;19921;-84
2021/12/01 03:46:51;;;;;;;;;;;;;;;0.82;58.26;99460.59;5029978;28;19917;-84
2021/12/01 03:49:17;;;;;;;;;;;;;;;0.97;57.56;99454.81;5036421;28;19924;-84
2021/12/01 03:51:42;;;;;;;;;;;;;;;1.13;56.20;99444.72;5048457;28;20060;-83
2021/12/01 03:54:08;;;;;;;;;;;;;;;1.31;55.24;99439.84;5043980;28;19913;-84
2021/12/01 03:56:34;;;;;;;;;;;;;;;1.60;55.60;99444.69;5029491;28;19917;-84
2021/12/01 03:58:59;;;;;;;;;;;;;;;1.36;56.04;99451.22;5030881;28;19970;-84
2021/12/01 04:01:25;;;;;;;;;;;;;;;1.56;55.21;99445.50;5028931;28;20020;-87
2021/12/01 04:03:50;;;;;;;;;;;;;;;1.50;55.63;99445.38;5030219;28;19913;-86
2021/12/01 04:06:15;;;;;;;;;;;;;;;1.68;55.83;99450.03;5049053;28;19921;-83
2021/12/01 04:08:41;;;;;;;;;;;;;;;1.75;55.21;99446.69;5048745;28;19917;-84
2021/12/01 04:11:07;;;;;;;;;;;;;;;1.90;54.62;99449.53;5049232;28;19919;-82
2021/12/01 04:13:32;;;;;;;;;;;;;;;1.90;54.44;99451.25;5033994;28;19943;-84
2021/12/01 04:15:58;;;;;;;;;;;;;;;2.24;53.25;99438.75;5045957;28;19916;-83
2021/12/01 04:18:23;;;;;;;;;;;;;;;2.14;53.60;99451.63;5048884;28;19912;-83
2021/12/01 04:20:48;;;;;;;;;;;;;;;2.30;53.13;99454.47;5048802;28;19948;-83
2021/12/01 04:23:14;;;;;;;;;;;;;;;2.43;53.29;99460.75;5048970;28;20314;-83
2021/12/01 04:25:39;;;;;;;;;;;;;;;2.41;53.19;99465.03;5045932;28;19982;-83
2021/12/01 04:28:05;;;;;;;;;;;;;;;2.53;52.79;99466.94;5036565;28;19921;-84
2021/12/01 04:30:30;;;;;;;;;;;;;;;2.58;53.44;99460.94;5036395;28;19921;-85
2021/12/01 04:32:57;;;;;;;;;;;;;;;2.56;52.85;99462.63;5041101;28;20386;-85
2021/12/01 04:35:24;;;;;;;;;;;;;;;2.64;53.16;99461.03;5047060;28;20340;-83
2021/12/01 04:37:50;;;;;;;;;;;;;;;2.50;51.57;99463.44;5048367;28;19960;-84
2021/12/01 04:40:16;;;;;;;;;;;;;;;2.64;51.98;99461.03;5034025;28;19963;-84
2021/12/01 04:42:42;;;;;;;;;;;;;;;2.78;51.55;99470.75;5037775;28;20390;-84
2021/12/01 04:45:14;;;;;;;;;;;;;;;2.50;51.50;99459.94;5047648;28;19927;-84
2021/12/01 04:47:41;;;;;;;;;;;;;;;2.53;52.09;99467.81;5048123;28;20027;-83
2021/12/01 04:50:07;;;;;;;;;;;;;;;2.50;52.04;99466.06;5035534;28;19917;-82
2021/12/01 04:52:32;;;;;;;;;;;;;;;2.27;52.09;99457.03;5039002;28;19920;-84
2021/12/01 04:54:57;;;;;;;;;;;;;;;2.33;52.45;99442.38;5028765;28;19919;-84
2021/12/01 04:57:23;;;;;;;;;;;;;;;2.42;52.91;99425.13;5026849;28;19913;-84
2021/12/01 04:59:49;;;;;;;;;;;;;;;1.94;53.50;99429.66;5034764;28;19921;-84
2021/12/01 05:02:14;;;;;;;;;;;;;;;2.01;53.65;99423.69;5027616;28;19921;-83
2021/12/01 05:04:41;;;;;;;;;;;;;;;1.92;53.43;99437.44;5028686;28;19921;-84
2021/12/01 05:07:07;;;;;;;;;;;;;;;1.92;53.63;99413.16;5041986;28;19957;-82
2021/12/01 05:09:32;;;;;;;;;;;;;;;2.01;53.66;99420.19;5027467;28;19921;-83
2021/12/01 05:11:57;;;;;;;;;;;;;;;1.93;52.67;99435.69;5027604;28;19913;-84
2021/12/01 05:14:25;;;;;;;;;;;;;;;1.96;53.10;99431.44;5024823;28;19944;-81
2021/12/01 05:16:51;;;;;;;;;;;;;;;1.97;53.29;99453.97;5027474;28;20003;-81
2021/12/01 05:19:17;;;;;;;;;;;;;;;2.13;52.48;99446.41;5026750;28;20012;-82
2021/12/01 05:21:42;;;;;;;;;;;;;;;2.23;52.29;99450.03;5028221;28;19921;-84
2021/12/01 05:24:07;;;;;;;;;;;;;;;2.44;52.31;99445.13;5026585;28;19917;-82
2021/12/01 05:26:33;;;;;;;;;;;;;;;2.31;52.71;99451.88;5027908;28;20307;-82
2021/12/01 05:28:58;;;;;;;;;;;;;;;2.43;52.73;99437.31;5041534;28;20741;-83
2021/12/01 05:31:24;;;;;;;;;;;;;;;2.43;52.70;99438.16;5029540;28;19921;-82
2021/12/01 05:33:49;;;;;;;;;;;;;;;2.23;53.60;99435.28;5027499;28;19921;-85
2021/12/01 05:36:15;;;;;;;;;;;;;;;2.26;53.56;99448.34;5018922;28;20025;-83
2021/12/01 05:38:41;;;;;;;;;;;;;;;2.20;53.35;99453.47;5020807;28;20947;-83
2021/12/01 05:41:06;;;;;;;;;;;;;;;2.23;54.52;99461.31;5019861;28;20350;-83
2021/12/01 05:43:32;;;;;;;;;;;;;;;2.25;54.57;99467.41;5019402;28;19983;-82
2021/12/01 05:45:57;;;;;;;;;;;;;;;2.38;53.92;99459.78;5034910;28;20704;-82
2021/12/01 05:48:22;;;;;;;;;;;;;;;2.30;54.42;99465.78;5045982;28;19921;-84
2021/12/01 05:50:48;;;;;;;;;;;;;;;2.19;55.03;99469.91;5048154;28;19923;-84
2021/12/01 05:53:13;;;;;;;;;;;;;;;2.26;55.19;99469.16;5028217;28;20003;-84
2021/12/01 05:55:40;;;;;;;;;;;;;;;2.19;54.64;99480.34;5030702;28;20383;-83
2021/12/01 05:58:06;;;;;;;;;;;;;;;1.95;55.76;99476.50;5043325;28;19944;-82
2021/12/01 06:00:31;;;;;;;;;;;;;;;1.82;56.54;99469.34;5043979;28;19960;-82
2021/12/01 06:02:56;;;;;;;;;;;;;;;1.75;56.55;99480.50;5040116;28;19916;-83
2021/12/01 06:05:22;;;;;;;;;;;;;;;1.72;56.10;99483.06;5040617;28;20322;-84
2021/12/01 06:07:48;;;;;;;;;;;;;;;1.65;57.00;99470.78;5028618;28;19956;-84
2021/12/01 06:10:14;;;;;;;;;;;;;;;1.82;56.50;99477.13;5026762;28;20004;-83
2021/12/01 06:12:40;;;;;;;;;;;;;;;1.96;55.62;99479.97;5031390;28;20011;-84
2021/12/01 06:15:09;;;;;;;;;;;;;;;2.26;56.06;99474.38;5042381;28;20429;-83
2021/12/01 06:17:34;;;;;;;;;;;;;;;2.46;59.11;99453.84;5025300;28;20386;-84
2021/12/01 06:20:00;;;;;;;;;;;;;;;2.51;57.68;99459.97;5027085;28;19960;-83
2021/12/01 06:22:25;;;;;;;;;;;;;;;2.61;56.55;99461.00;5026222;28;20441;-83
2021/12/01 06:24:51;;;;;;;;;;;;;;;2.64;54.59;99465.34;5027065;28;19917;-84
2021/12/01 06:27:16;;;;;;;;;;;;;;;2.74;53.13;99476.78;5026913;28;19928;-84
2021/12/01 06:29:41;;;;;;;;;;;;;;;2.81;52.36;99474.28;5027147;28;19917;-84
2021/12/01 06:32:07;;;;;;;;;;;;;;;3.04;50.46;99473.66;5026341;28;19917;-85
2021/12/01 06:34:32;;;;;;;;;;;;;;;3.18;49.47;99482.53;5026893;28;19920;-85
2021/12/01 06:36:57;;;;;;;;;;;;;;;3.28;49.73;99483.50;5026889;28;19920;-84
2021/12/01 06:39:23;;;;;;;;;;;;;;;3.68;48.34;99483.91;5026465;28;19918;-84
2021/12/01 06:41:48;;;;;;;;;;;;;;;3.94;47.67;99489.38;5026156;28;19913;-84
2021/12/01 06:44:14;;;;;;;;;;;;;;;4.31;45.74;99480.97;5026678;28;20353;-85
2021/12/01 06:46:40;;;;;;;;;;;;;;;4.72;44.63;99488.16;5026838;28;19913;-85
2021/12/01 06:49:05;;;;;;;;;;;;;;;4.93;44.43;99481.31;5027065;28;19924;-84
2021/12/01 06:51:30;;;;;;;;;;;;;;;5.11;44.75;99486.63;5027358;28;19923;-84
2021/12/01 06:53:56;;;;;;;;;;;;;;;5.11;44.69;99489.22;5027637;28;19917;-84
2021/12/01 06:56:21;;;;;;;;;;;;;;;5.40;43.92;99504.13;5030514;28;19917;-82
2021/12/01 06:58:47;;;;;;;;;;;;;;;5.41;43.36;99494.53;5030528;28;19925;-86
2021/12/01 07:01:13;;;;;;;;;;;;;;;5.66;42.71;99501.56;5029127;28;20012;-83
2021/12/01 07:03:39;;;;;;;;;;;;;;;5.85;41.43;99502.47;5030553;28;20011;-84
2021/12/01 07:06:04;;;;;;;;;;;;;;;6.20;41.21;99501.66;5030366;28;20008;-84
2021/12/01 07:08:30;;;;;;;;;;;;;;;6.66;41.16;99510.31;5030846;28;19924;-84
2021/12/01 07:10:55;;;;;;;;;;;;;;;6.91;41.87;99513.78;5029516;28;19959;-84
2021/12/01 07:13:20;;;;;;;;;;;;;;;6.81;40.17;99512.91;5030026;28;20302;-85
2021/12/01 07:15:46;;;;;;;;;;;;;;;6.83;39.36;99505.94;5028928;28;20439;-84
2021/12/01 07:18:11;;;;;;;;;;;;;;;6.78;39.65;99508.56;5030577;28;20028;-84
2021/12/01 07:20:37;;;;;;;;;;;;;;;6.85;39.76;99517.28;5031671;28;19920;-83
2021/12/01 07:23:03;;;;;;;;;;;;;;;6.57;38.61;99508.59;5029579;28;20288;-82
2021/12/01 07:25:28;;;;;;;;;;;;;;;6.70;39.54;99514.69;5043894;28;19944;-82
2021/12/01 07:27:54;;;;;;;;;;;;;;;6.96;38.57;99519.88;5049779;28;19917;-83
2021/12/01 07:30:19;;;;;;;;;;;;;;;7.14;39.28;99511.94;5049112;28;20399;-83
2021/12/01 07:32:45;;;;;;;;;;;;;;;7.41;39.14;99504.81;5049296;28;20003;-84
2021/12/01 07:35:10;;;;;;;;;;;;;;;7.79;38.59;99508.09;5048631;28;19959;-85
2021/12/01 07:37:35;;;;;;;;;;;;;;;7.88;38.41;99516.78;5049307;28;19913;-86
2021/12/01 07:40:01;;;;;;;;;;;;;;;7.79;38.60;99503.72;5049014;28;19920;-85
2021/12/01 07:42:26;;;;;;;;;;;;;;;7.90;38.92;99508.91;5028698;28;20421;-85
2021/12/01 07:44:52;;;;;;;;;;;;;;;7.80;38.84;99501.94;5029095;28;19935;-84
2021/12/01 07:47:17;;;;;;;;;;;;;;;7.61;39.56;99480.22;5028994;28;19923;-84
2021/12/01 07:49:42;;;;;;;;;;;;;;;7.51;39.19;99495.16;5028728;28;19917;-86
2021/12/01 07:52:08;;;;;;;;;;;;;;;7.91;39.23;99489.63;5029082;28;20004;-85
2021/12/01 07:54:34;;;;;;;;;;;;;;;8.15;39.91;99493.81;5047231;28;20275;-85
2021/12/01 07:57:01;;;;;;;;;;;;;;;8.31;39.19;99510.34;5048284;28;19946;-85
2021/12/01 07:59:27;;;;;;;;;;;;;;;8.40;39.06;99512.00;5048145;28;20398;-85
2021/12/01 08:01:52;;;;;;;;;;;;;;;8.42;39.73;99503.22;5049007;28;19920;-85
2021/12/01 08:04:17;;;;;;;;;;;;;;;8.42;39.76;99503.22;5049249;28;20015;-85
2021/12/01 08:06:43;;;;;;;;;;;;;;;8.03;39.42;99497.44;5048816;28;19927;-85
2021/12/01 08:09:09;;;;;;;;;;;;;;;8.00;39.41;99492.19;5049763;28;19923;-87
2021/12/01 08:11:35;;;;;;;;;;;;;;;8.03;39.37;99488.66;5049137;28;19913;-85
2021/12/01 08:14:00;;;;;;;;;;;;;;;8.25;40.52;99484.09;5048880;28;19912;-85
2021/12/01 08:16:26;;;;;;;;;;;;;;;8.16;40.18;99482.41;5049538;28;19913;-85
2021/12/01 08:18:54;;;;;;;;;;;;;;;7.92;39.26;99469.50;5047165;28;20298;-85
2021/12/01 08:21:19;;;;;;;;;;;;;;;7.96;39.40;99495.72;5049087;28;19912;-85
2021/12/01 08:23:45;;;;;;;;;;;;;;;8.28;39.47;99489.34;5049670;28;20644;-87
2021/12/01 08:26:10;;;;;;;;;;;;;;;8.54;39.90;99491.75;5048557;28;20089;-87
2021/12/01 08:28:36;;;;;;;;;;;;;;;8.70;37.90;99502.13;5049125;28;19917;-87
2021/12/01 08:31:01;;;;;;;;;;;;;;;8.58;37.55;99496.06;5047960;28;20431;-86
2021/12/01 08:33:26;;;;;;;;;;;;;;;8.83;37.89;99492.31;5027814;28;20397;-86
2021/12/01 08:35:52;;;;;;;;;;;;;;;8.96;38.22;99483.41;5027204;28;19967;-85
2021/12/01 08:38:17;;;;;;;;;;;;;;;8.75;37.65;99485.38;5027137;28;20055;-85
2021/12/01 08:40:43;;;;;;;;;;;;;;;8.96;37.71;99472.91;5029773;28;20405;-86
2021/12/01 08:43:08;;;;;;;;;;;;;;;9.17;38.38;99465.63;5028377;28;20012;-85
2021/12/01 08:45:34;;;;;;;;;;;;;;;9.14;37.36;99467.41;5028295;28;19917;-85
2021/12/01 08:47:59;;;;;;;;;;;;;;;8.91;37.63;99470.31;5026181;28;20379;-84
2021/12/01 08:50:25;;;;;;;;;;;;;;;8.95;37.37;99473.78;5028021;28;19923;-85
2021/12/01 08:52:50;;;;;;;;;;;;;;;8.93;37.00;99462.41;5027876;28;19924;-85
2021/12/01 08:55:15;;;;;;;;;;;;;;;9.30;37.93;99477.72;5028577;28;19968;-85
2021/12/01 08:57:42;;;;;;;;;;;;;;;9.20;36.91;99460.31;5027290;28;19966;-86
2021/12/01 09:00:08;;;;;;;;;;;;;;;9.56;36.99;99469.47;5027810;28;20583;-86
2021/12/01 09:02:33;;;;;;;;;;;;;;;9.37;37.78;99475.88;5027487;28;19913;-85
2021/12/01 09:04:59;;;;;;;;;;;;;;;9.45;37.57;99469.63;5027076;28;19917;-85
2021/12/01 09:07:24;;;;;;;;;;;;;;;9.47;37.63;99469.59;5027270;28;19921;-86
2021/12/01 09:09:49;;;;;;;;;;;;;;;9.46;38.04;99473.97;5028226;28;19913;-85
2021/12/01 09:12:15;;;;;;;;;;;;;;;9.69;38.17;99454.34;5027452;28;20012;-87
2021/12/01 09:14:42;;;;;;;;;;;;;;;9.51;37.41;99455.47;5027978;28;19913;-86
2021/12/01 09:17:10;;;;;;;;;;;;;;;9.53;38.10;99452.81;5027390;28;19925;-86
2021/12/01 09:19:35;;;;;;;;;;;;;;;9.86;39.65;99444.41;5026757;28;19917;-85
2021/12/01 09:22:01;;;;;;;;;;;;;;;9.81;37.73;99453.31;5027432;28;19924;-85
2021/12/01 09:24:26;;;;;;;;;;;;;;;9.82;37.73;99462.91;5026592;28;20366;-87
2021/12/01 09:26:51;;;;;;;;;;;;;;;10.16;38.39;99446.56;5027717;28;19913;-86
2021/12/01 09:29:17;;;;;;;;;;;;;;;10.02;38.44;99450.31;5027751;28;19913;-86
2021/12/01 09:31:42;;;;;;;;;;;;;;;9.80;38.29;99456.81;5027772;28;19966;-85
2021/12/01 09:34:08;;;;;;;;;;;;;;;9.94;38.71;99443.41;5027550;28;19913;-87
2021/12/01 09:36:33;;;;;;;;;;;;;;;9.92;38.44;99437.31;5027463;28;19948;-85
2021/12/01 09:38:58;;;;;;;;;;;;;;;9.94;38.47;99438.16;5027515;28;19924;-85
2021/12/01 09:41:24;;;;;;;;;;;;;;;10.01;38.30;99430.13;5026495;28;19917;-85
2021/12/01 09:43:49;;;;;;;;;;;;;;;10.35;39.05;99433.97;5027715;28;20670;-84
2021/12/01 09:46:15;;;;;;;;;;;;;;;10.53;38.10;99438.91;5028077;28;20646;-84
2021/12/01 09:48:41;;;;;;;;;;;;;;;10.49;37.25;99439.00;5027817;28;19971;-83
2021/12/01 09:51:07;;;;;;;;;;;;;;;10.31;37.46;99433.09;5027604;28;19962;-84
2021/12/01 09:53:34;;;;;;;;;;;;;;;10.35;38.77;99431.34;5027589;28;19917;-83
2021/12/01 09:55:59;;;;;;;;;;;;;;;10.78;38.29;99414.66;5027434;28;19917;-84
2021/12/01 09:58:30;;;;;;;;;;;;;;;10.84;37.19;99414.53;5027289;28;19924;-84
2021/12/01 10:00:57;;;;;;;;;;;;;;;10.78;37.33;99414.66;5027175;28;19913;-84
2021/12/01 10:03:22;;;;;;;;;;;;;;;10.69;37.37;99399.00;5027444;28;19960;-85
2021/12/01 10:05:51;;;;;;;;;;;;;;;10.74;37.89;99403.31;5026528;28;19958;-83
2021/12/01 10:08:37;;;;;;;;;;;;;;;11.06;37.33;99400.88;5026362;28;19925;-84
2021/12/01 10:11:04;;;;;;;;;;;;;;;11.31;37.46;99401.22;5026605;28;19983;-84
2021/12/01 10:13:33;;;;;;;;;;;;;;;11.03;36.74;99395.66;5027446;28;19975;-83
2021/12/01 10:16:01;;;;;;;;;;;;;;;11.03;37.13;99393.91;5027503;28;19917;-85
2021/12/01 10:18:27;;;;;;;;;;;;;;;11.31;37.66;99392.41;5027782;28;19917;-85
2021/12/01 10:21:06;;;;;;;;;;;;;;;11.34;36.94;99387.06;5026317;28;19932;-85
2021/12/01 10:23:33;;;;;;;;;;;;;;;11.42;37.95;99370.16;5027197;28;19927;-84
2021/12/01 10:26:27;;;;;;;;;;;;;;;11.35;36.71;99371.19;5025920;28;19913;-84
2021/12/01 10:28:54;;;;;;;;;;;;;;;11.32;37.34;99365.13;5013845;28;19991;-83
2021/12/01 10:31:49;;;;;;;;;;;;;;;11.33;38.03;99373.00;5030694;28;20466;-85
2021/12/01 10:34:20;;;;;;;;;;;;;;;11.55;38.84;99369.84;5017042;28;19920;-83
2021/12/01 10:36:47;;;;;;;;;;;;;;;11.64;37.76;99374.91;5030976;28;20529;-85
2021/12/01 10:39:12;;;;;;;;;;;;;;;11.76;38.47;99361.41;5049625;28;19920;-83
2021/12/01 10:41:38;;;;;;;;;;;;;;;11.96;37.33;99368.00;5047449;28;19925;-86
2021/12/01 10:44:11;;;;;;;;;;;;;;;11.82;36.97;99363.03;5039038;28;20390;-84
2021/12/01 10:46:53;;;;;;;;;;;;;;;11.74;37.51;99355.28;5039777;28;19912;-85
2021/12/01 10:49:31;;;;;;;;;;;;;;;11.63;37.05;99349.38;5038457;28;21328;-86
2021/12/01 10:51:57;;;;;;;;;;;;;;;11.59;37.12;99356.53;5041038;28;19917;-85
2021/12/01 10:54:22;;;;;;;;;;;;;;;11.88;36.71;99375.19;5036979;28;19913;-85
2021/12/01 10:57:07;;;;;;;;;;;;;;;11.86;37.72;99377.88;5040949;28;19912;-86
2021/12/01 10:59:42;;;;;;;;;;;;;;;12.05;37.09;99375.69;5048696;28;19924;-83
2021/12/01 11:02:11;;;;;;;;;;;;;;;12.03;36.93;99382.78;5043984;28;20031;-85
2021/12/01 11:04:44;;;;;;;;;;;;;;;11.92;36.77;99376.88;5035094;28;20335;-84
2021/12/01 11:07:29;;;;;;;;;;;;;;;12.03;36.27;99377.47;5031041;28;19921;-85
2021/12/01 11:10:13;;;;;;;;;;;;;;;12.06;36.60;99387.13;5032973;28;19936;-86
2021/12/01 11:12:39;;;;;;;;;;;;;;;12.32;38.23;99394.38;5049813;28;19924;-90
2021/12/01 11:15:16;;;;;;;;;;;;;;;12.61;37.19;99377.69;5050131;28;20318;-91
2021/12/01 11:17:42;;;;;;;;;;;;;;;12.67;37.47;99387.25;5034446;28;19920;-87
2021/12/01 11:20:08;;;;;;;;;;;;;;;12.56;36.67;99378.72;5037519;28;19943;-85
2021/12/01 11:22:34;;;;;;;;;;;;;;;12.41;36.88;99378.25;5030275;28;19991;-85
2021/12/01 11:25:20;;;;;;;;;;;;;;;12.40;37.09;99373.00;5027713;28;20590;-85
2021/12/01 11:27:46;;;;;;;;;;;;;;;12.47;36.47;99364.00;5030055;28;19920;-84
2021/12/01 11:30:11;;;;;;;;;;;;;;;12.45;36.27;99381.66;5029193;28;19917;-83
2021/12/01 11:32:37;;;;;;;;;;;;;;;12.58;36.50;99368.97;5029946;28;19913;-85
2021/12/01 11:35:02;;;;;;;;;;;;;;;12.58;36.33;99369.84;5032818;28;20296;-85
2021/12/01 11:37:28;;;;;;;;;;;;;;;12.62;36.13;99373.25;5042627;28;19916;-82
2021/12/01 11:39:55;;;;;;;;;;;;;;;12.89;36.39;99366.31;5033957;28;19967;-85
2021/12/01 11:42:21;;;;;;;;;;;;;;;12.99;36.89;99353.66;5030959;28;20525;-85
2021/12/01 11:44:46;;;;;;;;;;;;;;;12.79;36.96;99357.78;5029802;28;20015;-84
2021/12/01 11:47:11;;;;;;;;;;;;;;;12.85;36.83;99354.06;5044609;28;19917;-85
2021/12/01 11:49:38;;;;;;;;;;;;;;;12.62;37.57;99355.63;5049308;28;19920;-84
2021/12/01 11:52:04;;;;;;;;;;;;;;;12.52;35.74;99351.50;5049170;28;19913;-85
2021/12/01 11:54:31;;;;;;;;;;;;;;;12.49;36.58;99354.22;5041674;28;19916;-86
2021/12/01 11:57:04;;;;;;;;;;;;;;;12.61;36.13;99353.03;5031539;28;19928;-86
2021/12/01 11:59:31;;;;;;;;;;;;;;;12.72;35.88;99349.13;5028839;28;19963;-83
2021/12/01 12:02:03;;;;;;;;;;;;;;;12.73;37.13;99344.72;5029492;28;19925;-86
2021/12/01 12:04:48;;;;;;;;;;;;;;;12.85;36.16;99338.19;5028438;28;19913;-85
2021/12/01 12:07:15;;;;;;;;;;;;;;;12.73;35.81;99328.84;5029301;28;19921;-89
2021/12/01 12:09:41;;;;;;;;;;;;;;;12.83;37.16;99313.53;5029087;28;19963;-85
2021/12/01 12:12:10;;;;;;;;;;;;;;;12.81;36.90;99302.16;5029382;28;19960;-85
2021/12/01 12:14:48;;;;;;;;;;;;;;;12.63;37.24;99309.69;5029304;28;20372;-85
2021/12/01 12:17:19;;;;;;;;;;;;;;;12.69;36.30;99306.88;5029496;28;19913;-83
2021/12/01 12:19:52;;;;;;;;;;;;;;;12.72;36.59;99301.50;5029450;28;19917;-84
2021/12/01 12:22:31;;;;;;;;;;;;;;;12.56;35.91;99308.16;5029047;28;19913;-84
2021/12/01 12:24:57;;;;;;;;;;;;;;;12.62;36.53;99297.41;5028835;28;19979;-84
2021/12/01 12:27:33;;;;;;;;;;;;;;;12.68;36.02;99306.91;5028883;28;20383;-83
2021/12/01 12:29:59;;;;;;;;;;;;;;;12.88;36.26;99304.56;5038174;28;19924;-85
2021/12/01 12:32:29;;;;;;;;;;;;;;;12.97;35.88;99300.75;5030215;28;19913;-84
2021/12/01 12:34:56;;;;;;;;;;;;;;;12.76;35.23;99301.41;5029009;28;19927;-85
2021/12/01 12:37:23;;;;;;;;;;;;;;;12.90;36.57;99305.38;5030810;28;19916;-85
2021/12/01 12:39:48;;;;;;;;;;;;;;;12.92;36.67;99302.69;5036564;28;19948;-84
2021/12/01 12:42:14;;;;;;;;;;;;;;;12.83;35.77;99308.25;5026809;28;19964;-84
2021/12/01 12:44:44;;;;;;;;;;;;;;;12.89;35.86;99300.13;5027957;28;19952;-88
2021/12/01 12:47:16;;;;;;;;;;;;;;;12.86;36.20;99308.16;5028636;28;19913;-85
2021/12/01 12:49:46;;;;;;;;;;;;;;;12.83;36.77;99301.16;5028714;28;19917;-84
2021/12/01 12:52:26;;;;;;;;;;;;;;;12.92;37.12;99301.81;5027250;28;19921;-85
2021/12/01 12:54:51;;;;;;;;;;;;;;;12.91;36.72;99290.34;5028306;28;19924;-85
2021/12/01 12:57:17;;;;;;;;;;;;;;;12.92;36.98;99294.72;5026792;28;19921;-86
2021/12/01 12:59:42;;;;;;;;;;;;;;;12.88;36.34;99295.72;5026304;28;20464;-85